Terminal Aerodrome Forecast
Issued by NWS

Home | Current Version | Previous Version | Graphics & Text | Print | Product List | Glossary On
Versions: 1 2 3 4 5 6 7 8 9 10 11 12 13 14 15
000
FTUS43 KGRB 291700
TAFMTW
TAF
KMTW 291720Z 2918/3018 33016G24KT P6SM OVC015
     FM292000 33018G30KT P6SM OVC020
     FM300000 33017G25KT P6SM OVC025
     FM300300 33014G20KT P6SM SCT025
     FM300900 33009KT P6SM FEW020 SCT250
     FM301500 32006KT P6SM FEW020 SCT100 BKN200=

USA.gov is the U.S. government's official web portal to all federal, state and local government web resources and services.